Flight Track Log - Related Links

Times and Time Zones

All times are in EST time to prevent confusion due to time zone crossing. See the EJA922 flight status page for this flight to view local times or setup timezone preferences in your user account.

Time Position Orientation Groundspeed Altitude Reporting Facility
EST Latitude Longitude Course Direction KTS MPH feet Rate Location/Type
Sun 02:14:43 PM 37.7500 -122.3000 70° East 230 265 2,900  Level Northern Cal TRACON
Sun 02:15:43 PM 37.8167 -122.3167 349° North 292 336 5,400 2,550 Climbing Northern Cal TRACON
Sun 02:16:43 PM 37.9000 -122.3000 North 292 336 8,000 2,550 Climbing Northern Cal TRACON
Sun 02:17:43 PM 37.9667 -122.2167 45° Northeast 305 351 10,500 1,700 Climbing Northern Cal TRACON
Sun 02:18:43 PM 38.0167 -122.1333 53° Northeast 348 400 11,400 1,200 Climbing Northern Cal TRACON
Sun 02:19:13 PM 38.0600 -122.0811 43° Northeast 371 427 12,300 2,022 Climbing Oakland Center
Sun 02:20:00 PM 38.0198 -121.1817 70° East  Level Estimated
Sun 02:20:15 PM 38.1333 -121.9789 48° Northeast 389 448 14,500  Level Oakland Center
Sun 02:21:16 PM 38.2086 -121.8756 47° Northeast 398 458 16,400 1,721 Climbing Oakland Center
Sun 02:22:17 PM 38.2881 -121.7669 47° Northeast 416 479 18,000 1,659 Climbing Oakland Center
Sun 02:23:19 PM 38.3669 -121.6567 48° Northeast 422 486 19,800 1,707 Climbing Oakland Center
Sun 02:24:20 PM 38.4436 -121.5486 48° Northeast 431 496 21,500 1,659 Climbing Oakland Center
Sun 02:25:22 PM 38.5233 -121.4161 52° Northeast 446 513 23,200 1,756 Climbing Oakland Center
Sun 02:26:23 PM 38.5958 -121.2878 54° Northeast 446 513 25,100 1,756 Climbing Oakland Center
Sun 02:27:25 PM 38.6767 -121.1517 53° Northeast 458 527 26,800 1,512 Climbing Oakland Center
Sun 02:28:26 PM 38.7497 -121.0158 55° Northeast 461 531 28,200 1,317 Climbing Oakland Center
Sun 02:29:28 PM 38.8225 -120.8350 63° Northeast 471 542 29,500 1,268 Climbing Oakland Center
Sun 02:30:29 PM 38.8839 -120.6814 63° Northeast 481 554 30,800 1,463 Climbing Oakland Center
Sun 02:31:31 PM 38.9456 -120.5275 63° Northeast 483 556 32,500 1,694 Climbing Oakland Center
Sun 02:32:33 PM 39.0058 -120.3769 63° Northeast 475 547 34,300 1,561 Climbing Oakland Center
Sun 02:33:34 PM 39.0675 -120.2258 62° Northeast 476 548 35,700 1,463 Climbing Oakland Center
Sun 02:34:36 PM 39.1281 -120.0728 63° Northeast 479 551 37,300 1,366 Climbing Oakland Center
Sun 02:35:37 PM 39.1889 -119.9186 63° Northeast 481 554 38,500 829 Climbing Oakland Center
Sun 02:36:39 PM 39.2519 -119.7600 63° Northeast 493 567 39,000 242 Climbing Oakland Center
Sun 02:37:41 PM 39.3308 -119.5614 63° Northeast 520 598 39,000  Level Oakland Center
Sun 02:38:42 PM 39.3989 -119.3892 63° Northeast 538 619 39,000  Level Oakland Center
Sun 02:39:44 PM 39.4669 -119.2122 63° Northeast 544 626 39,000  Level Oakland Center
Sun 02:40:46 PM 39.5350 -119.0353 63° Northeast 544 626 39,000  Level Oakland Center
Sun 02:41:47 PM 39.6042 -118.8578 63° Northeast 542 624 39,000  Level Oakland Center
Sun 02:42:49 PM 39.6725 -118.6781 64° Northeast 544 626 39,000  Level Oakland Center
Sun 02:43:51 PM 39.7397 -118.5006 64° Northeast 543 625 39,000  Level Oakland Center
Sun 02:44:52 PM 39.8058 -118.3228 64° Northeast 543 625 39,000  Level Oakland Center
Sun 02:45:54 PM 39.8711 -118.1456 64° Northeast 541 623 39,000  Level Oakland Center
Sun 02:46:56 PM 39.9369 -117.9694 64° Northeast 540 621 39,000  Level Oakland Center
Sun 02:47:57 PM 40.0019 -117.7928 64° Northeast 540 621 39,000  Level Oakland Center
Sun 02:48:59 PM 40.0806 -117.5808 64° Northeast 540 621 39,000  Level Oakland Center
Sun 02:49:50 PM 40.1264 -117.4528 65° Northeast 541 623 39,000  Level Salt Lake Center
Sun 02:50:52 PM 40.1981 -117.2550 65° Northeast 539 620 39,000  Level Salt Lake Center
Sun 02:51:54 PM 40.2589 -117.0867 65° Northeast 538 619 39,000  Level Salt Lake Center
Sun 02:52:56 PM 40.3181 -116.9192 65° Northeast 536 617 39,000  Level Salt Lake Center
Sun 02:53:58 PM 40.3875 -116.7286 64° Northeast 538 619 39,000  Level Salt Lake Center
Sun 02:54:59 PM 40.4572 -116.5322 65° Northeast 537 618 39,000  Level Salt Lake Center
Sun 02:56:01 PM 40.5167 -116.3642 65° Northeast 533 613 39,000  Level Salt Lake Center
Sun 02:57:03 PM 40.5850 -116.1672 65° Northeast 530 610 39,000  Level Salt Lake Center
Sun 02:58:05 PM 40.6433 -115.9961 66° East 536 617 39,000  Level Salt Lake Center
Sun 02:59:08 PM 40.7117 -115.7978 66° East 535 616 39,000  Level Salt Lake Center
Sun 03:00:10 PM 40.7694 -115.6258 66° East 535 616 39,000  Level Salt Lake Center
Sun 03:01:11 PM 40.8378 -115.4261 66° East 535 616 39,000  Level Salt Lake Center
Sun 03:02:13 PM 40.8956 -115.2539 66° East 536 617 39,000  Level Salt Lake Center
Sun 03:03:15 PM 40.9642 -115.0536 66° East 536 617 39,000  Level Salt Lake Center
Sun 03:04:17 PM 41.0222 -114.8803 66° East 537 618 39,000  Level Salt Lake Center
Sun 03:05:19 PM 41.0786 -114.7139 66° East 535 616 39,000  Level Salt Lake Center
Sun 03:06:20 PM 41.1486 -114.4975 67° East 534 615 39,000  Level Salt Lake Center
Sun 03:07:22 PM 41.2069 -114.3153 67° East 536 617 39,000  Level Salt Lake Center
Sun 03:08:24 PM 41.2658 -114.1333 67° East 537 618 39,000  Level Salt Lake Center
Sun 03:09:26 PM 41.3244 -113.9517 67° East 536 617 39,000  Level Salt Lake Center
Sun 03:10:27 PM 41.3700 -113.7631 72° East 537 618 39,000  Level Salt Lake Center
Sun 03:11:29 PM 41.3814 -113.5639 86° East 541 623 39,000  Level Salt Lake Center
Sun 03:12:31 PM 41.3928 -113.3653 86° East 540 621 39,000  Level Salt Lake Center
Sun 03:13:33 PM 41.4083 -113.1269 85° East 539 620 39,000  Level Salt Lake Center
Sun 03:14:35 PM 41.4208 -112.9253 85° East 544 626 39,000  Level Salt Lake Center
Sun 03:15:36 PM 41.4325 -112.7264 85° East 541 623 39,000  Level Salt Lake Center
Sun 03:16:38 PM 41.4442 -112.5264 85° East 541 623 39,000  Level Salt Lake Center
Sun 03:17:40 PM 41.4544 -112.3253 86° East 543 625 39,000  Level Salt Lake Center
Sun 03:18:42 PM 41.4656 -112.1244 86° East 541 623 39,000  Level Salt Lake Center
Sun 03:19:44 PM 41.4761 -111.9228 86° East 541 623 39,000  Level Salt Lake Center
Sun 03:20:45 PM 41.4864 -111.7206 86° East 543 625 39,000 244 Level Salt Lake Center
Sun 03:21:47 PM 41.4983 -111.4794 86° East 540 621 39,500 677 Climbing Salt Lake Center
Sun 03:22:49 PM 41.5075 -111.2831 86° East 531 611 40,400 726 Climbing Salt Lake Center
Sun 03:23:51 PM 41.5153 -111.0900 87° East 523 602 41,000 293 Climbing Salt Lake Center
Sun 03:24:52 PM 41.5244 -110.8972 86° East 529 609 41,000  Level Salt Lake Center
Sun 03:25:54 PM 41.5342 -110.6750 87° East 538 619 41,000  Level Salt Lake Center
Sun 03:26:56 PM 41.5414 -110.4844 87° East 539 620 41,000  Level Salt Lake Center
Sun 03:27:58 PM 41.5475 -110.2936 87° East 538 619 41,000  Level Salt Lake Center
Sun 03:28:59 PM 41.5564 -110.0714 87° East 538 619 41,000  Level Salt Lake Center
Sun 03:30:01 PM 41.5636 -109.8825 87° East 533 613 41,000  Level Salt Lake Center
Sun 03:31:03 PM 41.5706 -109.6589 88° East 537 618 41,000  Level Salt Lake Center
Sun 03:32:05 PM 41.5769 -109.4681 87° East 537 618 41,000  Level Salt Lake Center
Sun 03:33:07 PM 41.5842 -109.2453 87° East 533 613 41,000  Level Salt Lake Center
Sun 03:34:08 PM 41.5897 -109.0500 88° East 538 619 41,000  Level Salt Lake Center
Sun 03:35:10 PM 41.6017 -108.8581 85° East 535 616 41,000  Level Salt Lake Center
Sun 03:36:12 PM 41.6197 -108.6361 84° East 535 616 41,000  Level Salt Lake Center
Sun 03:37:13 PM 41.6328 -108.4450 85° East 538 619 41,000  Level Salt Lake Center
Sun 03:38:15 PM 41.6472 -108.2547 84° East 538 619 41,000  Level Salt Lake Center
Sun 03:39:17 PM 41.6644 -108.0342 84° East 536 617 41,000  Level Salt Lake Center
Sun 03:40:19 PM 41.6772 -107.8444 85° East 535 616 41,000  Level Salt Lake Center
Sun 03:41:03 PM 41.6864 -107.6842 86° East 535 616 41,000  Level Denver Center
Sun 03:42:05 PM 41.7000 -107.4944 84° East 536 617 41,000  Level Denver Center
Sun 03:43:07 PM 41.7144 -107.2728 85° East 536 617 41,000  Level Denver Center
Sun 03:44:09 PM 41.7269 -107.0814 85° East 538 619 41,000  Level Denver Center
Sun 03:45:11 PM 41.7392 -106.8572 86° East 542 624 41,000  Level Denver Center
Sun 03:46:13 PM 41.7508 -106.6656 85° East 542 624 41,000  Level Denver Center
Sun 03:47:14 PM 41.7636 -106.4350 86° East 544 626 41,000  Level Denver Center
Sun 03:48:16 PM 41.7758 -106.2431 85° East 543 625 41,000  Level Denver Center
Sun 03:49:18 PM 41.7856 -106.0494 86° East 545 627 41,000  Level Denver Center
Sun 03:50:20 PM 41.7964 -105.8242 86° East 545 627 41,000  Level Denver Center
Sun 03:51:22 PM 41.8067 -105.6339 86° East 540 621 41,000  Level Denver Center
Sun 03:52:24 PM 41.8178 -105.4089 86° East 543 625 41,000  Level Denver Center
Sun 03:53:26 PM 41.8264 -105.2161 87° East 542 624 41,000  Level Denver Center
Sun 03:54:28 PM 41.8372 -104.9914 86° East 544 626 41,000  Level Denver Center
Sun 03:55:30 PM 41.8453 -104.8000 87° East 543 625 41,000  Level Denver Center
Sun 03:56:31 PM 41.8544 -104.5758 87° East 542 624 41,000  Level Denver Center
Sun 03:57:33 PM 41.8611 -104.3847 87° East 540 621 41,000  Level Denver Center
Sun 03:58:35 PM 41.8694 -104.1625 87° East 539 620 41,000  Level Denver Center
Sun 03:59:38 PM 41.8772 -103.9708 87° East 541 623 41,000  Level Denver Center
Sun 04:00:40 PM 41.8847 -103.7458 87° East 543 625 41,000  Level Denver Center
Sun 04:01:42 PM 41.8908 -103.5528 88° East 544 626 41,000  Level Denver Center
Sun 04:02:44 PM 41.9144 -103.3286 82° East 546 628 41,000  Level Denver Center
Sun 04:03:45 PM 41.9414 -103.1397 79° East 540 621 41,000  Level Denver Center
Sun 04:04:47 PM 41.9719 -102.9186 79° East 542 624 41,000  Level Denver Center
Sun 04:05:49 PM 41.9978 -102.7264 80° East 547 629 41,000  Level Denver Center
Sun 04:06:51 PM 42.0283 -102.5017 80° East 548 631 41,000  Level Denver Center
Sun 04:07:53 PM 42.0536 -102.3081 80° East 550 633 41,000  Level Denver Center
Sun 04:08:55 PM 42.0836 -102.0917 79° East 555 639 41,000  Level Denver Center
Sun 04:09:57 PM 42.1072 -101.8961 81° East 554 638 41,000  Level Denver Center
Sun 04:10:59 PM 42.1381 -101.6664 80° East 558 642 41,000  Level Denver Center
Sun 04:12:01 PM 42.1606 -101.4719 81° East 551 634 41,000  Level Denver Center
Sun 04:13:02 PM 42.1892 -101.2406 80° East 558 642 41,000  Level Denver Center
Sun 04:14:04 PM 42.2131 -101.0431 81° East 557 641 41,000  Level Denver Center
Sun 04:15:06 PM 42.2400 -100.8125 81° East 555 639 41,000  Level Denver Center
Sun 04:16:08 PM 42.2639 -100.6147 81° East 557 641 41,000  Level Denver Center
Sun 04:17:10 PM 42.2864 -100.4164 81° East 558 642 41,000  Level Denver Center
Sun 04:18:02 PM 42.3067 -100.2394 81° East 559 643 41,000  Level Minneapolis Center
Sun 04:19:04 PM 42.3294 -100.0314 82° East 559 643 41,000  Level Minneapolis Center
Sun 04:20:06 PM 42.3569 -99.7797 82° East 562 647 41,000  Level Minneapolis Center
Sun 04:21:08 PM 42.3800 -99.5689 82° East 565 650 41,000  Level Minneapolis Center
Sun 04:22:10 PM 42.4025 -99.3606 82° East 561 646 41,000  Level Minneapolis Center
Sun 04:23:12 PM 42.4236 -99.1483 82° East 564 649 41,000  Level Minneapolis Center
Sun 04:24:13 PM 42.4453 -98.9378 82° East 563 648 41,000  Level Minneapolis Center
Sun 04:25:15 PM 42.4664 -98.7256 82° East 566 651 41,000  Level Minneapolis Center
Sun 04:26:17 PM 42.4797 -98.5125 85° East 565 650 41,000  Level Minneapolis Center
Sun 04:27:19 PM 42.4900 -98.2986 86° East 567 652 41,000  Level Minneapolis Center
Sun 04:28:21 PM 42.4994 -98.0836 87° East 569 655 41,000  Level Minneapolis Center
Sun 04:29:23 PM 42.5103 -97.8239 87° East 573 659 41,000  Level Minneapolis Center
Sun 04:30:25 PM 42.5203 -97.6275 86° East 569 655 41,000  Level Minneapolis Center
Sun 04:31:27 PM 42.5292 -97.4128 87° East 569 655 41,000  Level Minneapolis Center
Sun 04:32:28 PM 42.5372 -97.1958 87° East 573 659 41,000  Level Minneapolis Center
Sun 04:33:30 PM 42.5467 -96.9364 87° East 574 661 41,000  Level Minneapolis Center
Sun 04:34:32 PM 42.5544 -96.7206 87° East 575 662 41,000  Level Minneapolis Center
Sun 04:35:34 PM 42.5611 -96.5036 88° East 574 661 41,000  Level Minneapolis Center
Sun 04:36:36 PM 42.5681 -96.2856 87° East 576 663 41,000  Level Minneapolis Center
Sun 04:37:38 PM 42.5742 -96.0686 88° East 576 663 41,000  Level Minneapolis Center
Sun 04:38:40 PM 42.5803 -95.8497 88° East 578 665 41,000  Level Minneapolis Center
Sun 04:39:42 PM 42.5864 -95.6317 88° East 577 664 41,000  Level Minneapolis Center
Sun 04:40:44 PM 42.5911 -95.4122 88° East 580 667 41,000  Level Minneapolis Center
Sun 04:41:46 PM 42.5964 -95.1469 88° East 583 671 41,000  Level Minneapolis Center
Sun 04:42:48 PM 42.6008 -94.9283 88° East 581 669 41,000  Level Minneapolis Center
Sun 04:43:50 PM 42.6047 -94.7086 89° East 582 670 41,000  Level Minneapolis Center
Sun 04:44:52 PM 42.6061 -94.5014 89° East 582 670 41,000  Level Minneapolis Center
Sun 04:45:54 PM 42.6078 -94.2833 89° East 584 672 41,000  Level Minneapolis Center
Sun 04:46:56 PM 42.5981 -94.0231 93° East 582 670 41,000  Level Minneapolis Center
Sun 04:47:58 PM 42.5872 -93.8053 94° East 583 671 41,000  Level Minneapolis Center
Sun 04:49:00 PM 42.5775 -93.5900 93° East 579 666 41,000  Level Minneapolis Center
Sun 04:50:02 PM 42.5675 -93.3717 93° East 584 672 41,000  Level Minneapolis Center
Sun 04:51:21 PM 42.5503 -93.0653 94° East 582 670 41,000  Level Chicago Center
Sun 04:52:23 PM 42.5375 -92.8450 94° East 590 679 41,000  Level Chicago Center
Sun 04:53:25 PM 42.5250 -92.6258 94° East 590 679 41,000  Level Chicago Center
Sun 04:54:28 PM 42.5117 -92.3639 94° East 588 677 41,000  Level Chicago Center
Sun 04:55:30 PM 42.4969 -92.1436 95° East 593 682 41,000  Level Chicago Center
Sun 04:56:32 PM 42.4842 -91.9269 94° East 592 681 41,000  Level Chicago Center
Sun 04:57:34 PM 42.4706 -91.7128 95° East 587 676 41,000  Level Chicago Center
Sun 04:58:36 PM 42.4536 -91.4525 95° East 591 680 41,000  Level Chicago Center
Sun 04:59:39 PM 42.4381 -91.2375 96° East 586 674 41,000  Level Chicago Center
Sun 05:00:41 PM 42.4225 -91.0200 95° East 589 678 41,000  Level Chicago Center
Sun 05:01:43 PM 42.4064 -90.8003 96° East 593 682 41,000  Level Chicago Center
Sun 05:02:45 PM 42.3906 -90.5375 95° East 591 680 41,000  Level Chicago Center
Sun 05:03:48 PM 42.3783 -90.3158 94° East 595 685 41,000  Level Chicago Center
Sun 05:04:50 PM 42.3656 -90.0953 94° East 594 684 41,000  Level Chicago Center
Sun 05:05:52 PM 42.3531 -89.8756 94° East 598 688 41,000  Level Chicago Center
Sun 05:06:54 PM 42.3375 -89.6117 94° East 593 682 41,000  Level Chicago Center
Sun 05:07:56 PM 42.3242 -89.3892 95° East 595 685 41,000  Level Chicago Center
Sun 05:08:58 PM 42.3094 -89.1675 95° East 596 686 41,000  Level Chicago Center
Sun 05:10:00 PM 42.2944 -88.9444 95° East 600 690 41,000  Level Chicago Center
Sun 05:11:02 PM 42.2769 -88.7011 95° East 604 695 41,000  Level Chicago Center
Sun 05:12:04 PM 42.2608 -88.4772 95° East 602 693 41,000  Level Chicago Center
Sun 05:13:06 PM 42.2442 -88.2522 96° East 602 693 41,000  Level Chicago Center
Sun 05:14:08 PM 42.2269 -88.0278 96° East 602 693 41,000  Level Chicago Center
Sun 05:15:10 PM 42.2100 -87.7575 95° East 602 693 41,000  Level Chicago Center
Sun 05:16:12 PM 42.1989 -87.5322 94° East 602 693 41,000  Level Chicago Center
Sun 05:17:14 PM 42.1861 -87.3067 94° East 604 695 41,000  Level Chicago Center
Sun 05:18:16 PM 42.1775 -87.0792 93° East 609 701 41,000  Level Chicago Center
Sun 05:19:18 PM 42.1836 -86.8514 88° East 612 704 41,000  Level Chicago Center
Sun 05:20:20 PM 42.1947 -86.5908 87° East 611 703 41,000  Level Chicago Center
Sun 05:21:22 PM 42.2017 -86.3625 88° East 608 700 41,000  Level Chicago Center
Sun 05:22:24 PM 42.2075 -86.1350 88° East 607 699 41,000  Level Chicago Center
Sun 05:23:26 PM 42.2133 -85.9239 88° East 611 703 41,000  Level Chicago Center
Sun 05:24:28 PM 42.2197 -85.6511 88° East 612 704 41,000  Level Chicago Center
Sun 05:25:30 PM 42.2231 -85.4208 89° East 616 709 41,000  Level Chicago Center
Sun 05:26:32 PM 42.2294 -85.1914 88° East 617 710 41,000  Level Chicago Center
Sun 05:27:34 PM 42.2356 -84.9572 88° East 625 719 41,000  Level Chicago Center
Sun 05:28:36 PM 42.2383 -84.7269 89° East 621 715 41,000  Level Chicago Center
Sun 05:29:38 PM 42.2419 -84.4503 89° East 619 712 41,000  Level Chicago Center
Sun 05:30:40 PM 42.2453 -84.2197 89° East 618 711 41,000  Level Chicago Center
Sun 05:31:41 PM 42.2464 -84.0161 90° East 616 709 41,000 537 Level Cleveland Center
Sun 05:32:43 PM 42.2425 -83.7428 91° East 611 703 42,100 968 Climbing Cleveland Center
Sun 05:33:45 PM 42.2336 -83.5197 93° East 597 687 43,000 435 Climbing Cleveland Center
Sun 05:34:47 PM 42.2228 -83.2975 94° East 590 679 43,000  Level Cleveland Center
Sun 05:35:49 PM 42.2133 -83.0575 93° East 589 678 43,000  Level Cleveland Center
Sun 05:36:51 PM 42.2033 -82.8372 93° East 592 681 43,000  Level Cleveland Center
Sun 05:37:54 PM 42.1925 -82.6164 94° East 592 681 43,000  Level Cleveland Center
Sun 05:38:56 PM 42.1811 -82.3967 94° East 590 679 43,000  Level Cleveland Center
Sun 05:39:58 PM 42.1700 -82.1756 94° East 593 682 43,000  Level Cleveland Center
Sun 05:41:00 PM 42.1572 -81.9239 94° East 583 671 43,000  Level Cleveland Center
Sun 05:42:02 PM 42.1453 -81.7072 94° East 576 663 43,000  Level Cleveland Center
Sun 05:43:04 PM 42.1331 -81.4922 94° East 571 657 43,000  Level Cleveland Center
Sun 05:44:06 PM 42.1200 -81.2756 95° East 572 658 43,000  Level Cleveland Center
Sun 05:45:08 PM 42.1075 -81.0692 95° East 551 634 43,000  Level Cleveland Center
Sun 05:46:10 PM 42.0950 -80.8642 95° East 543 625 43,000  Level Cleveland Center
Sun 05:47:12 PM 42.0819 -80.6564 95° East 549 632 43,000  Level Cleveland Center
Sun 05:48:14 PM 42.0686 -80.4442 95° East 559 643 43,000  Level Cleveland Center
Sun 05:49:16 PM 42.0531 -80.1994 95° East 556 640 43,000  Level Cleveland Center
Sun 05:50:18 PM 42.0367 -79.9881 96° East 562 647 43,000  Level Cleveland Center
Sun 05:51:21 PM 42.0228 -79.7792 95° East 560 644 43,000  Level Cleveland Center
Sun 05:52:23 PM 42.0072 -79.5697 96° East 565 650 43,000  Level Cleveland Center
Sun 05:53:25 PM 41.9906 -79.3611 96° East 562 647 43,000  Level Cleveland Center
Sun 05:54:27 PM 41.9758 -79.1514 95° East 565 650 43,000 -145 Level Cleveland Center
Sun 05:55:29 PM 41.9539 -78.9008 97° East 564 649 42,700 -823 Descending Cleveland Center
Sun 05:56:31 PM 41.9364 -78.6900 96° East 567 652 41,300 -1,452 Descending Cleveland Center
Sun 05:57:33 PM 41.9189 -78.4819 96° East 564 649 39,700 -1,548 Descending Cleveland Center
Sun 05:58:35 PM 41.9017 -78.2731 96° East 563 648 38,100 -1,548 Descending Cleveland Center
Sun 05:59:37 PM 41.8822 -78.0628 97° East 567 652 36,500 -1,563 Descending Cleveland Center
Sun 06:00:34 PM 41.8606 -77.8475 98° East 563 648 35,000 -763 Descending New York Center
Sun 06:01:35 PM 41.8119 -77.6475 108° East 563 648 35,000 -5,546 Level New York Center
Sun 06:02:33 PM 41.7619 -77.4617 110° East 574 661 24,000 -202 Descending New York Center
Sun 06:03:34 PM 41.7081 -77.2700 111° Southeast 574 661 34,600 4,574 Climbing New York Center
Sun 06:04:35 PM 41.6600 -77.0792 109° East 554 638 33,300 -1,339 Descending New York Center
Sun 06:05:35 PM 41.6114 -76.8917 109° East 542 624 31,900 -1,780 Descending New York Center
Sun 06:06:33 PM 41.6489 -76.6894 76° East 498 573 29,800 -1,714 Descending New York Center
Sun 06:07:34 PM 41.6203 -76.5094 102° East 492 566 28,500 -1,426 Descending New York Center
Sun 06:08:35 PM 41.5119 -76.4197 148° Southeast 431 496 26,900 -1,513 Descending New York Center
Sun 06:09:33 PM 41.4486 -76.3092 127° Southeast 449 517 25,500 -1,831 Descending New York Center
Sun 06:10:33 PM 41.3903 -76.1275 113° Southeast 478 550 23,300 -2,083 Descending New York Center
Sun 06:11:34 PM 41.3475 -75.9636 109° East 473 544 21,300 -1,884 Descending New York Center
Sun 06:12:34 PM 41.3061 -75.8142 110° East 453 521 19,500 -1,686 Descending New York Center
Sun 06:13:35 PM 41.2661 -75.6731 111° Southeast 428 493 17,900 -1,869 Descending New York Center
Sun 06:14:36 PM 41.2256 -75.5433 113° Southeast 389 448 15,700 -2,288 Descending New York Center
Sun 06:15:33 PM 41.1789 -75.4078 115° Southeast 371 427 13,400 -2,237 Descending New York Center
Sun 06:16:34 PM 41.1378 -75.2864 114° Southeast 366 421 11,300 -2,016 Descending New York Center
Sun 06:17:35 PM 41.1003 -75.1739 114° Southeast 346 398 9,300 -1,916 Descending New York Center
Sun 06:18:33 PM 41.0686 -75.0753 113° Southeast 330 380 7,500 -1,678 Descending New York Center
Sun 06:19:33 PM 41.0458 -74.9528 104° East 314 361 6,000 -1,100 Descending New York Center
Sun 06:20:33 PM 41.0433 -74.8508 92° East 308 354 5,300 -893 Descending New York Center
Sun 06:21:34 PM 41.0433 -74.7272 90° East 308 354 4,200 -1,033 Descending New York Center
Sun 06:22:35 PM 41.0383 -74.6194 93° East 303 349 3,200 -595 Descending New York Center
Sun 06:23:35 PM 41.0356 -74.5150 92° East 292 336 3,000 -99 Descending New York Center
Sun 06:24:36 PM 41.0347 -74.4047 91° East 292 336 3,000 53 Level New York Center
Sun 06:25:28 PM 41.0333 -74.3000 91° East 289 333 3,100 -268 Climbing New York TRACON
Sun 06:26:28 PM 41.0333 -74.2167 90° East 248 285 2,500 -476 Descending New York TRACON
Sun 06:27:34 PM 41.0333 -74.1167 90° East 242 278 2,100 -190 Descending New York TRACON
Sun 06:28:34 PM 41.0000 -74.0500 124° Southeast 237 273 2,100  Level New York TRACON
Sun 06:29:34 PM 40.9500 -74.0500 180° South 197 227 2,100 -421 Level New York TRACON
Sun 06:30:28 PM 40.9000 -74.0500 180° South 163 188 1,300 -895 Descending New York TRACON
Sun 06:31:28 PM 40.8667 -74.0333 159° South 135 155 400 -900 Descending New York TRACON
Sun 06:34:00 PM 40.8500 -74.0500 339° North  Level FlightAware Approximate

Login

Don't have an account? Register now (free) for customized features, flight alerts, and more!